sensor_id;sensor_type;location;lat;lon;timestamp;temperature;humidity
21495;DHT22;10909;53.590;10.054;2023-08-08T00:01:07;15.70;75.90
21495;DHT22;10909;53.590;10.054;2023-08-08T00:03:34;15.70;76.00
21495;DHT22;10909;53.590;10.054;2023-08-08T00:06:00;15.70;76.20
21495;DHT22;10909;53.590;10.054;2023-08-08T00:08:25;15.60;76.40
21495;DHT22;10909;53.590;10.054;2023-08-08T00:10:51;15.60;76.60
21495;DHT22;10909;53.590;10.054;2023-08-08T00:13:16;15.50;77.10
21495;DHT22;10909;53.590;10.054;2023-08-08T00:15:42;15.50;77.30
21495;DHT22;10909;53.590;10.054;2023-08-08T00:18:08;15.40;77.50
21495;DHT22;10909;53.590;10.054;2023-08-08T00:20:34;15.40;78.10
21495;DHT22;10909;53.590;10.054;2023-08-08T00:22:59;15.30;78.00
21495;DHT22;10909;53.590;10.054;2023-08-08T00:25:25;15.30;78.30
21495;DHT22;10909;53.590;10.054;2023-08-08T00:27:51;15.30;78.30
21495;DHT22;10909;53.590;10.054;2023-08-08T00:30:16;15.30;78.90
21495;DHT22;10909;53.590;10.054;2023-08-08T00:32:42;15.30;79.10
21495;DHT22;10909;53.590;10.054;2023-08-08T00:35:08;15.40;79.30
21495;DHT22;10909;53.590;10.054;2023-08-08T00:37:34;15.40;79.40
21495;DHT22;10909;53.590;10.054;2023-08-08T00:39:59;15.40;79.40
21495;DHT22;10909;53.590;10.054;2023-08-08T00:42:25;15.40;79.30
21495;DHT22;10909;53.590;10.054;2023-08-08T00:44:51;15.40;79.40
21495;DHT22;10909;53.590;10.054;2023-08-08T00:47:16;15.40;79.80
21495;DHT22;10909;53.590;10.054;2023-08-08T00:49:42;15.40;80.10
21495;DHT22;10909;53.590;10.054;2023-08-08T00:52:09;15.40;79.90
21495;DHT22;10909;53.590;10.054;2023-08-08T00:54:35;15.40;79.80
21495;DHT22;10909;53.590;10.054;2023-08-08T00:57:01;15.40;79.80
21495;DHT22;10909;53.590;10.054;2023-08-08T00:59:27;15.40;80.00
21495;DHT22;10909;53.590;10.054;2023-08-08T01:01:53;15.40;79.90
21495;DHT22;10909;53.590;10.054;2023-08-08T01:04:19;15.40;80.00
21495;DHT22;10909;53.590;10.054;2023-08-08T01:10:04;15.50;80.40
21495;DHT22;10909;53.590;10.054;2023-08-08T01:12:41;15.50;81.10
21495;DHT22;10909;53.590;10.054;2023-08-08T01:15:08;15.50;80.00
21495;DHT22;10909;53.590;10.054;2023-08-08T01:17:36;15.50;80.10
21495;DHT22;10909;53.590;10.054;2023-08-08T01:20:05;15.50;80.30
21495;DHT22;10909;53.590;10.054;2023-08-08T01:22:40;15.50;80.50
21495;DHT22;10909;53.590;10.054;2023-08-08T01:25:08;15.50;81.20
21495;DHT22;10909;53.590;10.054;2023-08-08T01:27:35;15.50;80.50
21495;DHT22;10909;53.590;10.054;2023-08-08T01:30:01;15.50;80.50
21495;DHT22;10909;53.590;10.054;2023-08-08T01:32:27;15.50;80.80
21495;DHT22;10909;53.590;10.054;2023-08-08T01:34:53;15.50;80.70
21495;DHT22;10909;53.590;10.054;2023-08-08T01:37:29;15.60;80.90
21495;DHT22;10909;53.590;10.054;2023-08-08T01:39:59;15.60;81.00
21495;DHT22;10909;53.590;10.054;2023-08-08T01:42:25;15.60;81.00
21495;DHT22;10909;53.590;10.054;2023-08-08T01:44:53;15.60;81.00
21495;DHT22;10909;53.590;10.054;2023-08-08T01:47:19;15.60;81.10
21495;DHT22;10909;53.590;10.054;2023-08-08T01:49:44;15.70;81.10
21495;DHT22;10909;53.590;10.054;2023-08-08T01:52:10;15.70;81.20
21495;DHT22;10909;53.590;10.054;2023-08-08T01:54:35;15.70;81.20
21495;DHT22;10909;53.590;10.054;2023-08-08T01:57:01;15.70;81.20
21495;DHT22;10909;53.590;10.054;2023-08-08T01:59:27;15.70;81.10
21495;DHT22;10909;53.590;10.054;2023-08-08T02:01:53;15.70;81.00
21495;DHT22;10909;53.590;10.054;2023-08-08T02:04:20;15.70;81.00
21495;DHT22;10909;53.590;10.054;2023-08-08T02:06:45;15.70;80.80
21495;DHT22;10909;53.590;10.054;2023-08-08T02:09:11;15.70;80.70
21495;DHT22;10909;53.590;10.054;2023-08-08T02:11:36;15.80;80.60
21495;DHT22;10909;53.590;10.054;2023-08-08T02:14:02;15.70;80.60
21495;DHT22;10909;53.590;10.054;2023-08-08T02:16:29;15.80;80.70
21495;DHT22;10909;53.590;10.054;2023-08-08T02:18:54;15.80;80.60
21495;DHT22;10909;53.590;10.054;2023-08-08T02:21:20;15.80;80.60
21495;DHT22;10909;53.590;10.054;2023-08-08T02:23:46;15.80;80.50
21495;DHT22;10909;53.590;10.054;2023-08-08T02:26:11;15.80;80.40
21495;DHT22;10909;53.590;10.054;2023-08-08T02:28:37;15.80;80.20
21495;DHT22;10909;53.590;10.054;2023-08-08T02:31:02;15.80;81.00
21495;DHT22;10909;53.590;10.054;2023-08-08T02:33:28;15.80;80.20
21495;DHT22;10909;53.590;10.054;2023-08-08T02:35:54;15.80;80.10
21495;DHT22;10909;53.590;10.054;2023-08-08T02:38:19;15.80;80.10
21495;DHT22;10909;53.590;10.054;2023-08-08T02:40:45;15.80;80.10
21495;DHT22;10909;53.590;10.054;2023-08-08T02:43:10;15.80;80.10
21495;DHT22;10909;53.590;10.054;2023-08-08T02:45:37;15.80;80.20
21495;DHT22;10909;53.590;10.054;2023-08-08T02:48:02;15.80;80.30
21495;DHT22;10909;53.590;10.054;2023-08-08T02:50:28;15.80;80.50
21495;DHT22;10909;53.590;10.054;2023-08-08T02:52:54;15.80;80.40
21495;DHT22;10909;53.590;10.054;2023-08-08T02:55:19;15.80;80.40
21495;DHT22;10909;53.590;10.054;2023-08-08T02:57:45;15.80;80.40
21495;DHT22;10909;53.590;10.054;2023-08-08T03:00:11;15.80;80.40
21495;DHT22;10909;53.590;10.054;2023-08-08T03:02:37;15.80;80.40
21495;DHT22;10909;53.590;10.054;2023-08-08T03:05:03;15.80;80.40
21495;DHT22;10909;53.590;10.054;2023-08-08T03:07:31;15.80;80.50
21495;DHT22;10909;53.590;10.054;2023-08-08T03:09:57;15.80;80.60
21495;DHT22;10909;53.590;10.054;2023-08-08T03:12:22;15.80;80.60
21495;DHT22;10909;53.590;10.054;2023-08-08T03:14:48;15.80;81.40
21495;DHT22;10909;53.590;10.054;2023-08-08T03:17:13;15.80;80.60
21495;DHT22;10909;53.590;10.054;2023-08-08T03:19:39;15.80;80.70
21495;DHT22;10909;53.590;10.054;2023-08-08T03:22:05;15.80;80.80
21495;DHT22;10909;53.590;10.054;2023-08-08T03:24:30;15.80;80.80
21495;DHT22;10909;53.590;10.054;2023-08-08T03:26:56;15.80;80.80
21495;DHT22;10909;53.590;10.054;2023-08-08T03:29:22;15.80;80.80
21495;DHT22;10909;53.590;10.054;2023-08-08T03:31:47;15.80;80.80
21495;DHT22;10909;53.590;10.054;2023-08-08T03:34:13;15.80;80.80
21495;DHT22;10909;53.590;10.054;2023-08-08T03:36:40;15.80;80.80
21495;DHT22;10909;53.590;10.054;2023-08-08T03:39:06;15.80;80.80
21495;DHT22;10909;53.590;10.054;2023-08-08T03:41:33;15.80;80.80
21495;DHT22;10909;53.590;10.054;2023-08-08T03:43:59;15.80;80.80
21495;DHT22;10909;53.590;10.054;2023-08-08T03:46:24;15.80;80.80
21495;DHT22;10909;53.590;10.054;2023-08-08T03:48:50;15.80;80.60
21495;DHT22;10909;53.590;10.054;2023-08-08T03:51:16;15.90;80.60
21495;DHT22;10909;53.590;10.054;2023-08-08T03:53:41;15.80;80.50
21495;DHT22;10909;53.590;10.054;2023-08-08T03:56:07;15.80;80.60
21495;DHT22;10909;53.590;10.054;2023-08-08T03:58:33;15.80;80.60
21495;DHT22;10909;53.590;10.054;2023-08-08T04:00:58;15.80;80.90
21495;DHT22;10909;53.590;10.054;2023-08-08T04:03:24;15.70;81.00
21495;DHT22;10909;53.590;10.054;2023-08-08T04:05:49;15.70;81.00
21495;DHT22;10909;53.590;10.054;2023-08-08T04:08:16;15.70;81.10
21495;DHT22;10909;53.590;10.054;2023-08-08T04:10:43;15.70;81.20
21495;DHT22;10909;53.590;10.054;2023-08-08T04:13:09;15.70;81.20
21495;DHT22;10909;53.590;10.054;2023-08-08T04:15:36;15.70;81.20
21495;DHT22;10909;53.590;10.054;2023-08-08T04:18:01;15.70;81.30
21495;DHT22;10909;53.590;10.054;2023-08-08T04:20:27;15.70;81.30
21495;DHT22;10909;53.590;10.054;2023-08-08T04:22:52;15.70;81.40
21495;DHT22;10909;53.590;10.054;2023-08-08T04:25:18;15.70;81.50
21495;DHT22;10909;53.590;10.054;2023-08-08T04:27:46;15.70;81.40
21495;DHT22;10909;53.590;10.054;2023-08-08T04:30:12;15.80;81.50
21495;DHT22;10909;53.590;10.054;2023-08-08T04:32:37;15.80;81.40
21495;DHT22;10909;53.590;10.054;2023-08-08T04:35:03;15.80;81.40
21495;DHT22;10909;53.590;10.054;2023-08-08T04:37:29;15.80;81.30
21495;DHT22;10909;53.590;10.054;2023-08-08T04:39:55;15.80;81.30
21495;DHT22;10909;53.590;10.054;2023-08-08T04:42:20;15.80;81.20
21495;DHT22;10909;53.590;10.054;2023-08-08T04:44:46;15.80;81.00
21495;DHT22;10909;53.590;10.054;2023-08-08T04:47:12;15.80;81.10
21495;DHT22;10909;53.590;10.054;2023-08-08T04:49:37;15.80;81.00
21495;DHT22;10909;53.590;10.054;2023-08-08T04:52:03;15.80;80.90
21495;DHT22;10909;53.590;10.054;2023-08-08T04:54:29;15.80;80.80
21495;DHT22;10909;53.590;10.054;2023-08-08T04:56:55;15.80;80.80
21495;DHT22;10909;53.590;10.054;2023-08-08T04:59:21;15.90;80.80
21495;DHT22;10909;53.590;10.054;2023-08-08T05:01:46;15.90;80.80
21495;DHT22;10909;53.590;10.054;2023-08-08T05:04:12;15.90;80.70
21495;DHT22;10909;53.590;10.054;2023-08-08T05:06:38;15.90;80.70
21495;DHT22;10909;53.590;10.054;2023-08-08T05:09:03;15.90;80.70
21495;DHT22;10909;53.590;10.054;2023-08-08T05:11:29;15.90;80.70
21495;DHT22;10909;53.590;10.054;2023-08-08T05:13:54;15.90;80.60
21495;DHT22;10909;53.590;10.054;2023-08-08T05:16:20;16.00;80.70
21495;DHT22;10909;53.590;10.054;2023-08-08T05:18:46;16.00;80.60
21495;DHT22;10909;53.590;10.054;2023-08-08T05:21:12;16.00;80.70
21495;DHT22;10909;53.590;10.054;2023-08-08T05:23:37;16.00;80.80
21495;DHT22;10909;53.590;10.054;2023-08-08T05:26:03;16.10;80.80
21495;DHT22;10909;53.590;10.054;2023-08-08T05:28:29;16.10;80.70
21495;DHT22;10909;53.590;10.054;2023-08-08T05:30:55;16.20;80.60
21495;DHT22;10909;53.590;10.054;2023-08-08T05:33:22;16.20;80.60
21495;DHT22;10909;53.590;10.054;2023-08-08T05:35:47;16.20;80.50
21495;DHT22;10909;53.590;10.054;2023-08-08T05:38:13;16.30;80.50
21495;DHT22;10909;53.590;10.054;2023-08-08T05:40:39;16.30;80.60
21495;DHT22;10909;53.590;10.054;2023-08-08T05:43:04;16.40;80.60
21495;DHT22;10909;53.590;10.054;2023-08-08T05:45:30;16.50;80.20
21495;DHT22;10909;53.590;10.054;2023-08-08T05:47:57;16.50;80.30
21495;DHT22;10909;53.590;10.054;2023-08-08T05:50:23;16.50;80.10
21495;DHT22;10909;53.590;10.054;2023-08-08T05:52:49;16.60;79.60
21495;DHT22;10909;53.590;10.054;2023-08-08T05:55:15;16.70;79.40
21495;DHT22;10909;53.590;10.054;2023-08-08T05:57:40;16.70;79.40
21495;DHT22;10909;53.590;10.054;2023-08-08T06:00:06;16.80;79.10
21495;DHT22;10909;53.590;10.054;2023-08-08T06:02:36;16.70;78.80
21495;DHT22;10909;53.590;10.054;2023-08-08T06:05:03;16.80;79.10
21495;DHT22;10909;53.590;10.054;2023-08-08T06:07:29;16.80;79.20
21495;DHT22;10909;53.590;10.054;2023-08-08T06:09:55;16.90;79.30
21495;DHT22;10909;53.590;10.054;2023-08-08T06:12:20;17.00;79.40
21495;DHT22;10909;53.590;10.054;2023-08-08T06:14:46;17.00;79.40
21495;DHT22;10909;53.590;10.054;2023-08-08T06:17:12;17.10;78.60
21495;DHT22;10909;53.590;10.054;2023-08-08T06:19:38;17.10;78.60
21495;DHT22;10909;53.590;10.054;2023-08-08T06:22:04;17.10;78.30
21495;DHT22;10909;53.590;10.054;2023-08-08T06:24:29;17.20;78.40
21495;DHT22;10909;53.590;10.054;2023-08-08T06:26:56;17.20;79.10
21495;DHT22;10909;53.590;10.054;2023-08-08T06:29:21;17.20;78.10
21495;DHT22;10909;53.590;10.054;2023-08-08T06:31:47;17.20;78.00
21495;DHT22;10909;53.590;10.054;2023-08-08T06:34:13;17.20;78.20
21495;DHT22;10909;53.590;10.054;2023-08-08T06:36:39;17.20;78.50
21495;DHT22;10909;53.590;10.054;2023-08-08T06:39:04;17.20;78.50
21495;DHT22;10909;53.590;10.054;2023-08-08T06:41:31;17.30;79.00
21495;DHT22;10909;53.590;10.054;2023-08-08T06:43:57;17.40;78.70
21495;DHT22;10909;53.590;10.054;2023-08-08T06:46:22;17.40;78.20
21495;DHT22;10909;53.590;10.054;2023-08-08T06:48:50;17.50;78.50
21495;DHT22;10909;53.590;10.054;2023-08-08T06:51:18;17.50;77.70
21495;DHT22;10909;53.590;10.054;2023-08-08T06:53:44;17.50;77.50
21495;DHT22;10909;53.590;10.054;2023-08-08T06:56:10;17.50;77.30
21495;DHT22;10909;53.590;10.054;2023-08-08T06:58:35;17.60;77.50
21495;DHT22;10909;53.590;10.054;2023-08-08T07:01:07;17.60;77.80
21495;DHT22;10909;53.590;10.054;2023-08-08T07:03:36;17.70;77.50
21495;DHT22;10909;53.590;10.054;2023-08-08T07:06:02;17.70;77.60
21495;DHT22;10909;53.590;10.054;2023-08-08T07:08:30;17.80;77.70
21495;DHT22;10909;53.590;10.054;2023-08-08T07:10:57;17.80;77.00
21495;DHT22;10909;53.590;10.054;2023-08-08T07:13:23;17.90;76.60
21495;DHT22;10909;53.590;10.054;2023-08-08T07:15:48;18.00;76.70
21495;DHT22;10909;53.590;10.054;2023-08-08T07:18:15;18.00;76.40
21495;DHT22;10909;53.590;10.054;2023-08-08T07:20:40;18.10;75.70
21495;DHT22;10909;53.590;10.054;2023-08-08T07:23:06;18.10;76.30
21495;DHT22;10909;53.590;10.054;2023-08-08T07:25:32;18.10;75.30
21495;DHT22;10909;53.590;10.054;2023-08-08T07:27:58;18.20;75.20
21495;DHT22;10909;53.590;10.054;2023-08-08T07:30:23;18.20;75.40
21495;DHT22;10909;53.590;10.054;2023-08-08T07:32:50;18.20;75.20
21495;DHT22;10909;53.590;10.054;2023-08-08T07:35:16;18.30;74.50
21495;DHT22;10909;53.590;10.054;2023-08-08T07:37:43;18.40;75.00
21495;DHT22;10909;53.590;10.054;2023-08-08T07:40:16;18.40;74.30
21495;DHT22;10909;53.590;10.054;2023-08-08T07:42:46;18.50;73.30
21495;DHT22;10909;53.590;10.054;2023-08-08T07:45:12;18.50;73.80
21495;DHT22;10909;53.590;10.054;2023-08-08T07:47:38;18.60;74.00
21495;DHT22;10909;53.590;10.054;2023-08-08T07:50:04;18.60;73.60
21495;DHT22;10909;53.590;10.054;2023-08-08T07:52:30;18.70;73.50
21495;DHT22;10909;53.590;10.054;2023-08-08T07:54:55;18.70;73.90
21495;DHT22;10909;53.590;10.054;2023-08-08T07:57:21;18.80;73.70
21495;DHT22;10909;53.590;10.054;2023-08-08T07:59:46;18.90;74.40
21495;DHT22;10909;53.590;10.054;2023-08-08T08:02:12;19.00;73.10
21495;DHT22;10909;53.590;10.054;2023-08-08T08:04:38;19.10;73.30
21495;DHT22;10909;53.590;10.054;2023-08-08T08:07:04;19.10;72.60
21495;DHT22;10909;53.590;10.054;2023-08-08T08:09:29;19.20;72.30
21495;DHT22;10909;53.590;10.054;2023-08-08T08:11:55;19.20;72.50
21495;DHT22;10909;53.590;10.054;2023-08-08T08:14:22;19.30;73.00
21495;DHT22;10909;53.590;10.054;2023-08-08T08:16:47;19.30;73.10
21495;DHT22;10909;53.590;10.054;2023-08-08T08:19:13;19.40;72.40
21495;DHT22;10909;53.590;10.054;2023-08-08T08:21:39;19.40;71.80
21495;DHT22;10909;53.590;10.054;2023-08-08T08:24:05;19.40;72.00
21495;DHT22;10909;53.590;10.054;2023-08-08T08:26:31;19.40;72.10
21495;DHT22;10909;53.590;10.054;2023-08-08T08:28:57;19.40;71.80
21495;DHT22;10909;53.590;10.054;2023-08-08T08:31:23;19.30;72.20
21495;DHT22;10909;53.590;10.054;2023-08-08T08:33:49;19.30;72.80
21495;DHT22;10909;53.590;10.054;2023-08-08T08:36:15;19.20;71.90
21495;DHT22;10909;53.590;10.054;2023-08-08T08:38:40;19.20;72.20
21495;DHT22;10909;53.590;10.054;2023-08-08T08:41:06;19.10;72.80
21495;DHT22;10909;53.590;10.054;2023-08-08T08:43:34;19.20;72.20
21495;DHT22;10909;53.590;10.054;2023-08-08T08:46:00;19.10;71.30
21495;DHT22;10909;53.590;10.054;2023-08-08T08:48:28;19.10;71.40
21495;DHT22;10909;53.590;10.054;2023-08-08T08:50:53;19.00;69.80
21495;DHT22;10909;53.590;10.054;2023-08-08T08:53:20;19.00;69.80
21495;DHT22;10909;53.590;10.054;2023-08-08T08:55:48;18.90;70.40
21495;DHT22;10909;53.590;10.054;2023-08-08T08:58:15;18.90;70.60
21495;DHT22;10909;53.590;10.054;2023-08-08T09:00:46;18.90;70.60
21495;DHT22;10909;53.590;10.054;2023-08-08T09:03:13;18.90;70.40
21495;DHT22;10909;53.590;10.054;2023-08-08T09:05:39;18.90;70.10
21495;DHT22;10909;53.590;10.054;2023-08-08T09:08:07;19.00;71.30
21495;DHT22;10909;53.590;10.054;2023-08-08T09:10:33;19.00;69.40
21495;DHT22;10909;53.590;10.054;2023-08-08T09:13:00;19.00;69.20
21495;DHT22;10909;53.590;10.054;2023-08-08T09:15:33;19.00;69.20
21495;DHT22;10909;53.590;10.054;2023-08-08T09:18:00;19.10;67.80
21495;DHT22;10909;53.590;10.054;2023-08-08T09:20:27;19.10;68.30
21495;DHT22;10909;53.590;10.054;2023-08-08T09:22:56;19.00;69.10
21495;DHT22;10909;53.590;10.054;2023-08-08T09:25:22;19.10;69.20
21495;DHT22;10909;53.590;10.054;2023-08-08T09:27:51;19.10;69.80
21495;DHT22;10909;53.590;10.054;2023-08-08T09:30:18;19.10;69.00
21495;DHT22;10909;53.590;10.054;2023-08-08T09:32:44;19.20;68.60
21495;DHT22;10909;53.590;10.054;2023-08-08T09:35:10;19.20;69.00
21495;DHT22;10909;53.590;10.054;2023-08-08T09:37:37;19.20;69.50
21495;DHT22;10909;53.590;10.054;2023-08-08T09:40:04;19.30;70.10
21495;DHT22;10909;53.590;10.054;2023-08-08T09:42:33;19.30;68.70
21495;DHT22;10909;53.590;10.054;2023-08-08T09:44:59;19.30;68.70
21495;DHT22;10909;53.590;10.054;2023-08-08T09:47:26;19.30;69.30
21495;DHT22;10909;53.590;10.054;2023-08-08T09:50:00;19.30;69.10
21495;DHT22;10909;53.590;10.054;2023-08-08T09:52:30;19.40;69.10
21495;DHT22;10909;53.590;10.054;2023-08-08T09:54:56;19.40;69.20
21495;DHT22;10909;53.590;10.054;2023-08-08T09:57:23;19.30;68.80
21495;DHT22;10909;53.590;10.054;2023-08-08T09:59:49;19.10;68.60
21495;DHT22;10909;53.590;10.054;2023-08-08T10:02:16;18.90;69.20
21495;DHT22;10909;53.590;10.054;2023-08-08T10:04:45;18.80;69.70
21495;DHT22;10909;53.590;10.054;2023-08-08T10:07:11;18.60;70.00
21495;DHT22;10909;53.590;10.054;2023-08-08T10:09:37;18.40;70.50
21495;DHT22;10909;53.590;10.054;2023-08-08T10:12:07;18.30;71.00
21495;DHT22;10909;53.590;10.054;2023-08-08T10:14:35;18.10;71.50
21495;DHT22;10909;53.590;10.054;2023-08-08T10:17:05;18.00;72.60
21495;DHT22;10909;53.590;10.054;2023-08-08T10:19:32;17.70;73.40
21495;DHT22;10909;53.590;10.054;2023-08-08T10:22:03;17.60;74.50
21495;DHT22;10909;53.590;10.054;2023-08-08T10:24:36;17.40;75.70
21495;DHT22;10909;53.590;10.054;2023-08-08T10:27:03;17.30;76.50
21495;DHT22;10909;53.590;10.054;2023-08-08T10:29:32;17.20;77.30
21495;DHT22;10909;53.590;10.054;2023-08-08T10:32:03;17.10;77.20
21495;DHT22;10909;53.590;10.054;2023-08-08T10:34:41;17.00;77.40
21495;DHT22;10909;53.590;10.054;2023-08-08T10:37:15;16.90;78.00
21495;DHT22;10909;53.590;10.054;2023-08-08T10:42:18;16.80;79.20
21495;DHT22;10909;53.590;10.054;2023-08-08T10:44:54;16.80;79.20
21495;DHT22;10909;53.590;10.054;2023-08-08T10:47:24;16.90;79.80
21495;DHT22;10909;53.590;10.054;2023-08-08T10:50:10;16.90;80.40
21495;DHT22;10909;53.590;10.054;2023-08-08T10:55:31;16.90;79.90
21495;DHT22;10909;53.590;10.054;2023-08-08T10:58:12;17.00;79.60
21495;DHT22;10909;53.590;10.054;2023-08-08T11:00:40;17.00;79.20
21495;DHT22;10909;53.590;10.054;2023-08-08T11:03:06;17.00;79.10
21495;DHT22;10909;53.590;10.054;2023-08-08T11:05:33;17.00;78.80
21495;DHT22;10909;53.590;10.054;2023-08-08T11:08:00;17.00;78.20
21495;DHT22;10909;53.590;10.054;2023-08-08T11:10:35;16.90;78.30
21495;DHT22;10909;53.590;10.054;2023-08-08T11:13:03;16.80;78.80
21495;DHT22;10909;53.590;10.054;2023-08-08T11:15:33;16.80;79.40
21495;DHT22;10909;53.590;10.054;2023-08-08T11:18:00;16.80;79.80
21495;DHT22;10909;53.590;10.054;2023-08-08T11:20:32;16.70;79.90
21495;DHT22;10909;53.590;10.054;2023-08-08T11:22:58;16.80;80.40
21495;DHT22;10909;53.590;10.054;2023-08-08T11:25:29;16.80;80.20
21495;DHT22;10909;53.590;10.054;2023-08-08T11:27:56;16.90;79.80
21495;DHT22;10909;53.590;10.054;2023-08-08T11:30:23;16.90;79.10
21495;DHT22;10909;53.590;10.054;2023-08-08T11:32:50;16.90;78.90
21495;DHT22;10909;53.590;10.054;2023-08-08T11:35:22;16.90;79.10
21495;DHT22;10909;53.590;10.054;2023-08-08T11:37:52;16.80;79.20
21495;DHT22;10909;53.590;10.054;2023-08-08T11:40:18;16.70;79.30
21495;DHT22;10909;53.590;10.054;2023-08-08T11:42:45;16.70;79.60
21495;DHT22;10909;53.590;10.054;2023-08-08T11:45:12;16.60;80.00
21495;DHT22;10909;53.590;10.054;2023-08-08T11:47:41;16.60;81.00
21495;DHT22;10909;53.590;10.054;2023-08-08T11:50:09;16.70;81.90
21495;DHT22;10909;53.590;10.054;2023-08-08T11:52:44;16.80;81.90
21495;DHT22;10909;53.590;10.054;2023-08-08T11:55:11;16.90;81.90
21495;DHT22;10909;53.590;10.054;2023-08-08T11:57:38;17.00;81.70
21495;DHT22;10909;53.590;10.054;2023-08-08T12:00:06;17.10;80.50
21495;DHT22;10909;53.590;10.054;2023-08-08T12:02:33;17.20;80.50
21495;DHT22;10909;53.590;10.054;2023-08-08T12:05:10;17.30;80.20
21495;DHT22;10909;53.590;10.054;2023-08-08T12:07:40;17.30;80.20
21495;DHT22;10909;53.590;10.054;2023-08-08T12:10:16;17.30;80.50
21495;DHT22;10909;53.590;10.054;2023-08-08T12:12:43;17.30;81.00
21495;DHT22;10909;53.590;10.054;2023-08-08T12:15:10;17.30;81.30
21495;DHT22;10909;53.590;10.054;2023-08-08T12:17:36;17.40;81.50
21495;DHT22;10909;53.590;10.054;2023-08-08T12:20:07;17.50;81.60
21495;DHT22;10909;53.590;10.054;2023-08-08T12:22:34;17.60;81.60
21495;DHT22;10909;53.590;10.054;2023-08-08T12:25:00;17.70;81.80
21495;DHT22;10909;53.590;10.054;2023-08-08T12:27:32;17.80;82.20
21495;DHT22;10909;53.590;10.054;2023-08-08T12:29:58;17.90;82.30
21495;DHT22;10909;53.590;10.054;2023-08-08T12:32:25;18.10;82.20
21495;DHT22;10909;53.590;10.054;2023-08-08T12:34:52;18.20;81.50
21495;DHT22;10909;53.590;10.054;2023-08-08T12:37:17;18.40;81.30
21495;DHT22;10909;53.590;10.054;2023-08-08T12:39:43;18.50;81.60
21495;DHT22;10909;53.590;10.054;2023-08-08T12:42:09;18.70;81.10
21495;DHT22;10909;53.590;10.054;2023-08-08T12:44:34;18.90;80.10
21495;DHT22;10909;53.590;10.054;2023-08-08T12:47:00;19.00;81.10
21495;DHT22;10909;53.590;10.054;2023-08-08T12:49:27;19.30;81.20
21495;DHT22;10909;53.590;10.054;2023-08-08T12:51:53;19.60;81.10
21495;DHT22;10909;53.590;10.054;2023-08-08T12:54:21;19.90;80.10
21495;DHT22;10909;53.590;10.054;2023-08-08T12:56:47;20.20;78.50
21495;DHT22;10909;53.590;10.054;2023-08-08T12:59:13;20.40;77.40
21495;DHT22;10909;53.590;10.054;2023-08-08T13:01:38;20.50;77.40
21495;DHT22;10909;53.590;10.054;2023-08-08T13:04:04;20.60;75.90
21495;DHT22;10909;53.590;10.054;2023-08-08T13:06:30;20.60;73.80
21495;DHT22;10909;53.590;10.054;2023-08-08T13:08:56;20.60;74.00
21495;DHT22;10909;53.590;10.054;2023-08-08T13:11:22;20.40;72.90
21495;DHT22;10909;53.590;10.054;2023-08-08T13:13:47;20.20;71.40
21495;DHT22;10909;53.590;10.054;2023-08-08T13:16:13;19.90;69.50
21495;DHT22;10909;53.590;10.054;2023-08-08T13:18:39;19.50;70.80
21495;DHT22;10909;53.590;10.054;2023-08-08T13:21:05;19.30;71.60
21495;DHT22;10909;53.590;10.054;2023-08-08T13:23:32;19.00;72.30
21495;DHT22;10909;53.590;10.054;2023-08-08T13:25:58;18.80;73.20
21495;DHT22;10909;53.590;10.054;2023-08-08T13:28:23;18.70;75.80
21495;DHT22;10909;53.590;10.054;2023-08-08T13:30:49;18.70;77.80
21495;DHT22;10909;53.590;10.054;2023-08-08T13:33:15;19.00;79.40
21495;DHT22;10909;53.590;10.054;2023-08-08T13:35:40;19.30;79.30
21495;DHT22;10909;53.590;10.054;2023-08-08T13:38:06;19.60;79.00
21495;DHT22;10909;53.590;10.054;2023-08-08T13:40:33;20.10;78.10
21495;DHT22;10909;53.590;10.054;2023-08-08T13:42:59;20.50;78.20
21495;DHT22;10909;53.590;10.054;2023-08-08T13:45:24;20.90;77.30
21495;DHT22;10909;53.590;10.054;2023-08-08T13:47:50;21.30;75.50
21495;DHT22;10909;53.590;10.054;2023-08-08T13:50:16;21.60;74.70
21495;DHT22;10909;53.590;10.054;2023-08-08T13:52:41;21.80;70.70
21495;DHT22;10909;53.590;10.054;2023-08-08T13:55:08;21.80;70.30
21495;DHT22;10909;53.590;10.054;2023-08-08T13:57:34;21.70;66.90
21495;DHT22;10909;53.590;10.054;2023-08-08T14:00:00;21.50;67.00
21495;DHT22;10909;53.590;10.054;2023-08-08T14:02:28;21.20;66.30
21495;DHT22;10909;53.590;10.054;2023-08-08T14:04:55;20.80;66.60
21495;DHT22;10909;53.590;10.054;2023-08-08T14:07:20;20.40;66.70
21495;DHT22;10909;53.590;10.054;2023-08-08T14:09:46;20.00;66.80
21495;DHT22;10909;53.590;10.054;2023-08-08T14:12:12;19.60;67.90
21495;DHT22;10909;53.590;10.054;2023-08-08T14:14:38;19.40;69.10
21495;DHT22;10909;53.590;10.054;2023-08-08T14:17:03;19.20;69.70
21495;DHT22;10909;53.590;10.054;2023-08-08T14:19:29;19.00;70.50
21495;DHT22;10909;53.590;10.054;2023-08-08T14:21:55;18.90;71.40
21495;DHT22;10909;53.590;10.054;2023-08-08T14:24:21;18.90;72.20
21495;DHT22;10909;53.590;10.054;2023-08-08T14:26:46;18.80;71.90
21495;DHT22;10909;53.590;10.054;2023-08-08T14:29:12;18.80;72.50
21495;DHT22;10909;53.590;10.054;2023-08-08T14:31:38;18.80;72.20
21495;DHT22;10909;53.590;10.054;2023-08-08T14:34:04;18.70;72.60
21495;DHT22;10909;53.590;10.054;2023-08-08T14:36:30;18.70;72.20
21495;DHT22;10909;53.590;10.054;2023-08-08T14:38:55;18.80;72.60
21495;DHT22;10909;53.590;10.054;2023-08-08T14:41:21;18.70;73.00
21495;DHT22;10909;53.590;10.054;2023-08-08T14:43:47;18.80;73.90
21495;DHT22;10909;53.590;10.054;2023-08-08T14:46:13;19.00;74.30
21495;DHT22;10909;53.590;10.054;2023-08-08T14:48:38;19.10;73.60
21495;DHT22;10909;53.590;10.054;2023-08-08T14:51:04;19.20;73.60
21495;DHT22;10909;53.590;10.054;2023-08-08T14:53:30;19.30;73.20
21495;DHT22;10909;53.590;10.054;2023-08-08T14:55:55;19.40;71.70
21495;DHT22;10909;53.590;10.054;2023-08-08T14:58:21;19.50;70.70
21495;DHT22;10909;53.590;10.054;2023-08-08T15:00:47;19.60;70.50
21495;DHT22;10909;53.590;10.054;2023-08-08T15:03:13;19.60;69.70
21495;DHT22;10909;53.590;10.054;2023-08-08T15:05:39;19.70;70.20
21495;DHT22;10909;53.590;10.054;2023-08-08T15:08:06;19.70;69.70
21495;DHT22;10909;53.590;10.054;2023-08-08T15:10:32;19.80;69.30
21495;DHT22;10909;53.590;10.054;2023-08-08T15:12:57;19.80;68.90
21495;DHT22;10909;53.590;10.054;2023-08-08T15:15:23;19.80;66.90
21495;DHT22;10909;53.590;10.054;2023-08-08T15:17:51;19.70;67.30
21495;DHT22;10909;53.590;10.054;2023-08-08T15:20:17;19.70;66.80